Time;durP1;ratioP1;P1;durP2;ratioP2;P2;SDS_P1;SDS_P2;PMS_P1;PMS_P2;Temp;Humidity;BMP_temperature;BMP_pressure;BME280_temperature;BME280_humidity;BME280_pressure;Samples;Min_cycle;Max_cycle;Signal;HPM_P1;HPM_P2
2021/06/04 00:00:53;;;;;;;10.43;8.45;;;17.50;75.60;;;;;;2055756;28;20031;-71
2021/06/04 00:01:54;;;;;;;9.25;8.27;;;17.50;75.50;;;;;;2055702;28;20097;-71
2021/06/04 00:02:56;;;;;;;10.10;8.60;;;17.50;75.40;;;;;;2055596;28;20114;-71
2021/06/04 00:03:58;;;;;;;9.95;8.43;;;17.50;75.50;;;;;;2064137;28;20085;-71
2021/06/04 00:04:58;;;;;;;9.35;8.45;;;17.50;75.80;;;;;;2062997;28;20018;-71
2021/06/04 00:05:59;;;;;;;9.48;8.52;;;17.50;76.00;;;;;;2064465;28;20037;-71
2021/06/04 00:07:01;;;;;;;9.05;8.15;;;17.50;76.20;;;;;;2060103;28;20102;-71
2021/06/04 00:08:03;;;;;;;9.30;8.40;;;17.50;76.20;;;;;;2055804;28;20035;-71
2021/06/04 00:09:07;;;;;;;9.38;8.48;;;17.40;76.20;;;;;;2064141;28;20035;-71
2021/06/04 00:10:15;;;;;;;9.25;8.35;;;17.40;76.40;;;;;;2055632;28;20031;-70
2021/06/04 00:11:31;;;;;;;10.68;8.50;;;17.40;76.50;;;;;;2056154;28;20027;-71
2021/06/04 00:12:32;;;;;;;9.50;8.50;;;17.40;76.70;;;;;;2063776;28;20027;-71
2021/06/04 00:13:36;;;;;;;9.73;8.73;;;17.30;76.80;;;;;;2054848;28;20041;-71
2021/06/04 00:14:41;;;;;;;10.13;9.15;;;17.30;76.80;;;;;;2054987;28;20023;-71
2021/06/04 00:15:42;;;;;;;9.80;8.80;;;17.30;76.90;;;;;;2055441;28;20027;-71
2021/06/04 00:17:05;;;;;;;10.15;9.15;;;17.30;77.00;;;;;;2055073;28;20073;-71
2021/06/04 00:18:06;;;;;;;9.55;8.65;;;17.30;77.10;;;;;;2063041;28;20041;-71
2021/06/04 00:19:11;;;;;;;9.73;8.73;;;17.30;77.30;;;;;;2054869;28;20767;-71
2021/06/04 00:20:18;;;;;;;9.60;8.60;;;17.30;77.30;;;;;;2055395;28;20031;-71
2021/06/04 00:21:26;;;;;;;9.48;8.50;;;17.20;77.00;;;;;;2063218;28;20038;-71
2021/06/04 00:22:27;;;;;;;10.52;8.55;;;17.20;77.30;;;;;;2064240;28;20034;-71
2021/06/04 00:23:28;;;;;;;9.93;8.80;;;17.20;77.50;;;;;;2064220;28;20034;-71
2021/06/04 00:24:29;;;;;;;9.00;8.10;;;17.20;77.50;;;;;;2063355;28;20102;-72
2021/06/04 00:25:33;;;;;;;11.48;9.23;;;17.20;77.70;;;;;;2064440;28;20478;-73
2021/06/04 00:26:35;;;;;;;9.57;8.63;;;17.20;77.90;;;;;;2064388;28;20424;-71
2021/06/04 00:27:39;;;;;;;9.40;8.40;;;17.10;78.00;;;;;;2064329;28;20030;-70
2021/06/04 00:28:39;;;;;;;9.48;8.48;;;17.10;78.00;;;;;;2064479;28;20034;-70
2021/06/04 00:29:44;;;;;;;9.70;8.55;;;17.10;78.00;;;;;;2064553;28;20034;-71
2021/06/04 00:30:45;;;;;;;10.07;8.23;;;17.10;78.20;;;;;;2064597;28;20034;-71
2021/06/04 00:31:48;;;;;;;9.15;8.20;;;17.10;78.40;;;;;;2055749;28;20034;-72
2021/06/04 00:32:49;;;;;;;9.13;8.07;;;17.10;78.50;;;;;;2057538;28;20059;-71
2021/06/04 00:33:50;;;;;;;8.95;8.05;;;17.10;78.40;;;;;;2057541;28;20035;-71
2021/06/04 00:34:52;;;;;;;9.30;8.40;;;17.00;78.40;;;;;;2055933;28;20035;-71
2021/06/04 00:35:53;;;;;;;9.18;8.23;;;17.00;78.50;;;;;;2059438;28;20027;-71
2021/06/04 00:36:54;;;;;;;9.30;8.40;;;17.00;78.40;;;;;;2064249;28;20037;-70
2021/06/04 00:37:55;;;;;;;9.15;8.25;;;17.00;78.60;;;;;;2067638;28;20133;-71
2021/06/04 00:38:58;;;;;;;9.38;8.35;;;17.00;79.00;;;;;;2064308;28;20864;-71
2021/06/04 00:39:58;;;;;;;9.25;8.32;;;17.00;79.10;;;;;;2064486;28;20561;-71
2021/06/04 00:41:05;;;;;;;10.23;8.40;;;16.90;79.10;;;;;;2064442;28;20042;-71
2021/06/04 00:42:18;;;;;;;10.82;8.60;;;16.90;79.30;;;;;;2063820;28;20022;-71
2021/06/04 00:43:23;;;;;;;8.90;8.00;;;16.90;79.40;;;;;;2055950;28;20110;-71
2021/06/04 00:44:26;;;;;;;10.25;8.98;;;16.90;80.20;;;;;;2055504;28;20590;-71
2021/06/04 00:45:37;;;;;;;9.73;8.73;;;16.90;80.80;;;;;;2055477;28;20042;-71
2021/06/04 00:46:39;;;;;;;9.88;8.75;;;16.90;80.90;;;;;;2057177;28;20637;-71
2021/06/04 00:47:40;;;;;;;9.43;8.32;;;16.90;81.00;;;;;;2055551;28;20089;-71
2021/06/04 00:48:41;;;;;;;10.10;9.10;;;16.80;80.90;;;;;;2055550;28;20114;-71
2021/06/04 00:49:49;;;;;;;9.35;8.45;;;16.80;81.10;;;;;;2056242;28;20603;-71
2021/06/04 00:50:58;;;;;;;9.80;8.82;;;16.80;81.10;;;;;;2063520;28;20026;-71
2021/06/04 00:52:10;;;;;;;9.70;8.68;;;16.80;81.10;;;;;;2064279;28;20033;-71
2021/06/04 00:53:12;;;;;;;10.18;8.90;;;16.70;81.00;;;;;;2055074;28;20039;-71
2021/06/04 00:54:14;;;;;;;10.25;8.57;;;16.70;81.10;;;;;;2054783;28;20019;-71
2021/06/04 00:55:19;;;;;;;9.73;8.75;;;16.70;81.10;;;;;;2055276;28;20067;-70
2021/06/04 00:56:24;;;;;;;10.10;9.10;;;16.70;81.10;;;;;;2055803;28;20031;-71
2021/06/04 00:57:28;;;;;;;9.45;8.50;;;16.70;81.20;;;;;;2064112;28;20031;-71
2021/06/04 00:58:39;;;;;;;9.18;8.27;;;16.60;81.40;;;;;;2056827;28;20479;-71
2021/06/04 00:59:46;;;;;;;9.38;8.38;;;16.60;81.50;;;;;;2059336;28;20499;-71
2021/06/04 01:00:56;;;;;;;10.20;8.82;;;16.60;81.40;;;;;;2058934;28;20165;-71
2021/06/04 01:01:58;;;;;;;9.70;8.73;;;16.60;81.70;;;;;;2057078;28;20558;-71
2021/06/04 01:03:00;;;;;;;10.43;8.85;;;16.50;81.80;;;;;;2048845;28;20519;-70
2021/06/04 01:04:18;;;;;;;10.20;9.13;;;16.50;81.80;;;;;;2049133;28;20031;-71
2021/06/04 01:05:20;;;;;;;10.25;9.25;;;16.50;81.60;;;;;;2058840;28;20030;-71
2021/06/04 01:06:46;;;;;;;10.45;9.45;;;16.50;81.80;;;;;;2065395;28;20022;-71
2021/06/04 01:08:15;;;;;;;11.45;9.07;;;16.40;82.00;;;;;;2057333;28;20042;-71
2021/06/04 01:09:43;;;;;;;10.65;8.75;;;16.40;82.40;;;;;;2056852;28;20026;-71
2021/06/04 01:10:58;;;;;;;9.57;8.57;;;16.40;82.60;;;;;;2057279;28;20050;-70
2021/06/04 01:12:14;;;;;;;9.80;8.80;;;16.40;82.40;;;;;;2057573;28;20038;-72
2021/06/04 01:13:32;;;;;;;10.23;9.10;;;16.40;82.30;;;;;;2048932;29;20031;-71
2021/06/04 01:14:47;;;;;;;9.73;8.73;;;16.30;82.40;;;;;;2050557;28;20034;-72
2021/06/04 01:16:02;;;;;;;9.77;8.88;;;16.30;82.40;;;;;;2057620;28;20057;-71
2021/06/04 01:17:14;;;;;;;14.18;9.70;;;16.30;82.60;;;;;;2056726;28;20513;-71
2021/06/04 01:18:53;;;;;;;12.20;8.93;;;16.30;84.10;;;;;;2049220;29;20039;-71
2021/06/04 01:20:15;;;;;;;10.68;9.13;;;16.40;85.30;;;;;;2029591;29;20551;-72
2021/06/04 01:21:24;;;;;;;10.80;9.70;;;16.30;85.30;;;;;;2047305;28;20038;-72
2021/06/04 01:22:44;;;;;;;11.95;9.27;;;16.30;85.50;;;;;;2049475;29;20050;-72
2021/06/04 01:24:10;;;;;;;10.02;8.98;;;16.30;85.70;;;;;;2051916;28;20827;-72
2021/06/04 01:25:48;;;;;;;10.20;9.18;;;16.30;85.80;;;;;;2049737;29;20398;-72
2021/06/04 01:26:56;;;;;;;10.65;9.02;;;16.30;85.80;;;;;;2054853;28;20459;-71
2021/06/04 01:27:59;;;;;;;9.95;8.95;;;16.20;85.70;;;;;;2049632;29;20051;-71
2021/06/04 01:29:16;;;;;;;10.02;9.07;;;16.20;85.60;;;;;;2049564;28;20023;-72
2021/06/04 01:30:27;;;;;;;11.60;9.13;;;16.20;85.60;;;;;;2057989;28;20510;-72
2021/06/04 01:31:55;;;;;;;10.00;9.05;;;16.20;85.70;;;;;;2058744;28;20030;-71
2021/06/04 01:33:01;;;;;;;9.85;8.85;;;16.20;86.60;;;;;;2058313;28;20597;-72
2021/06/04 01:34:10;;;;;;;10.10;9.00;;;16.20;86.10;;;;;;2049637;29;20050;-71
2021/06/04 01:35:23;;;;;;;10.00;9.00;;;16.20;86.30;;;;;;2055521;28;20019;-71
2021/06/04 01:36:30;;;;;;;10.32;9.00;;;16.20;86.50;;;;;;2065734;28;20113;-72
2021/06/04 01:37:32;;;;;;;9.60;8.60;;;16.20;86.60;;;;;;2057720;28;20503;-72
2021/06/04 01:38:41;;;;;;;9.68;8.77;;;16.20;86.60;;;;;;2058051;28;20031;-72
2021/06/04 01:39:46;;;;;;;11.07;9.15;;;16.20;86.20;;;;;;2065341;28;20054;-71
2021/06/04 01:40:51;;;;;;;10.15;9.05;;;16.20;86.10;;;;;;2056869;28;20138;-71
2021/06/04 01:41:53;;;;;;;10.48;9.30;;;16.20;86.10;;;;;;2057156;28;20152;-72
2021/06/04 01:43:01;;;;;;;10.00;9.00;;;16.10;86.10;;;;;;2065134;28;20025;-71
2021/06/04 01:44:17;;;;;;;10.57;9.20;;;16.10;86.00;;;;;;2065462;28;20077;-71
2021/06/04 01:45:22;;;;;;;11.15;9.20;;;16.10;85.80;;;;;;2065755;28;20027;-72
2021/06/04 01:46:35;;;;;;;9.70;8.75;;;16.10;85.70;;;;;;2057144;28;20537;-71
2021/06/04 01:47:42;;;;;;;11.60;9.60;;;16.10;85.80;;;;;;2052384;28;20034;-71
2021/06/04 01:48:47;;;;;;;11.88;9.45;;;16.00;86.00;;;;;;2057749;28;20038;-72
2021/06/04 01:49:57;;;;;;;10.57;9.48;;;16.00;86.10;;;;;;2064853;28;20061;-71
2021/06/04 01:51:01;;;;;;;10.45;9.02;;;16.00;86.10;;;;;;2064738;28;20070;-72
2021/06/04 01:52:19;;;;;;;10.20;9.05;;;16.00;86.00;;;;;;2057640;28;20082;-71
2021/06/04 01:53:27;;;;;;;10.43;9.32;;;16.00;86.00;;;;;;2058563;28;20494;-71
2021/06/04 01:54:39;;;;;;;10.00;8.93;;;16.00;85.90;;;;;;2057145;28;20081;-71
2021/06/04 01:55:45;;;;;;;10.10;9.10;;;16.00;86.10;;;;;;2057597;28;20510;-71
2021/06/04 01:56:53;;;;;;;9.77;8.77;;;16.00;86.40;;;;;;2064598;28;20096;-72
2021/06/04 01:58:06;;;;;;;9.93;8.93;;;16.00;86.40;;;;;;2064799;28;20490;-71
2021/06/04 01:59:15;;;;;;;10.63;9.30;;;15.90;86.90;;;;;;2064521;28;20587;-71
2021/06/04 02:00:32;;;;;;;9.98;8.98;;;15.90;87.60;;;;;;2064474;28;20509;-71
2021/06/04 02:01:47;;;;;;;10.02;9.02;;;15.90;87.90;;;;;;2064800;28;20524;-72
2021/06/04 02:02:48;;;;;;;9.60;8.70;;;15.90;88.30;;;;;;2064490;28;20041;-72
2021/06/04 02:04:07;;;;;;;10.40;9.35;;;15.90;88.80;;;;;;2064639;28;20113;-71
2021/06/04 02:05:21;;;;;;;11.45;9.10;;;15.90;88.90;;;;;;2064360;28;20022;-72
2021/06/04 02:06:22;;;;;;;10.52;9.30;;;15.90;88.80;;;;;;2057022;28;20093;-71
2021/06/04 02:07:33;;;;;;;10.10;9.07;;;15.80;88.20;;;;;;2056368;28;20031;-71
2021/06/04 02:08:44;;;;;;;10.05;8.95;;;15.90;87.70;;;;;;2064607;28;20417;-70
2021/06/04 02:09:48;;;;;;;10.77;9.68;;;15.90;87.60;;;;;;2047770;28;20077;-71
2021/06/04 02:10:56;;;;;;;10.60;9.45;;;15.80;87.40;;;;;;2050726;28;20034;-71
2021/06/04 02:11:58;;;;;;;13.23;9.75;;;15.80;87.20;;;;;;2064634;28;20041;-71
2021/06/04 02:13:10;;;;;;;10.05;9.00;;;15.80;87.10;;;;;;2056488;28;20165;-71
2021/06/04 02:14:26;;;;;;;12.10;9.30;;;15.80;87.10;;;;;;2055653;28;20039;-71
2021/06/04 02:15:33;;;;;;;10.93;9.35;;;15.80;86.80;;;;;;2056249;28;20086;-71
2021/06/04 02:17:02;;;;;;;10.15;9.15;;;15.80;86.40;;;;;;2058611;28;20106;-71
2021/06/04 02:18:27;;;;;;;9.85;8.88;;;15.80;86.30;;;;;;2065292;28;20046;-71
2021/06/04 02:20:01;;;;;;;10.98;9.77;;;15.80;86.40;;;;;;2056460;28;20425;-71
2021/06/04 02:21:31;;;;;;;10.27;9.20;;;15.80;86.10;;;;;;2063169;28;20069;-71
2021/06/04 02:23:10;;;;;;;10.63;9.38;;;15.80;86.00;;;;;;2056344;28;20126;-72
2021/06/04 02:24:28;;;;;;;10.38;9.25;;;15.80;85.60;;;;;;2060700;28;20505;-70
2021/06/04 02:25:59;;;;;;;10.68;9.38;;;15.90;85.60;;;;;;2064650;28;20046;-70
2021/06/04 02:27:25;;;;;;;9.77;8.82;;;15.90;85.20;;;;;;2065259;28;20026;-73
2021/06/04 02:28:42;;;;;;;9.68;8.70;;;15.90;85.20;;;;;;2066796;28;20217;-72
2021/06/04 02:29:50;;;;;;;10.30;9.10;;;15.90;85.00;;;;;;2058039;28;20031;-71
2021/06/04 02:31:00;;;;;;;9.70;8.70;;;16.00;84.90;;;;;;2050675;28;20026;-73
2021/06/04 02:32:05;;;;;;;10.13;9.00;;;16.00;85.00;;;;;;2052022;28;20427;-71
2021/06/04 02:33:14;;;;;;;10.95;9.15;;;16.00;85.20;;;;;;2059012;28;20735;-73
2021/06/04 02:34:26;;;;;;;9.55;8.50;;;16.10;85.00;;;;;;2066596;28;20022;-71
2021/06/04 02:35:31;;;;;;;9.65;8.65;;;16.10;84.70;;;;;;2049463;29;20031;-71
2021/06/04 02:36:39;;;;;;;9.20;8.32;;;16.10;84.90;;;;;;2049220;28;20025;-71
2021/06/04 02:37:47;;;;;;;9.93;8.93;;;16.20;84.80;;;;;;2064435;28;20034;-71
2021/06/04 02:38:53;;;;;;;11.95;9.25;;;16.20;84.30;;;;;;2064372;28;20049;-70
2021/06/04 02:40:00;;;;;;;11.40;8.98;;;16.20;83.90;;;;;;2064479;28;20482;-70
2021/06/04 02:41:10;;;;;;;9.85;8.85;;;16.20;83.60;;;;;;2064796;28;20030;-70
2021/06/04 02:42:19;;;;;;;11.30;8.90;;;16.30;83.60;;;;;;2064957;28;20549;-71
2021/06/04 02:43:27;;;;;;;10.18;8.82;;;16.30;82.70;;;;;;2064866;28;20105;-71
2021/06/04 02:44:35;;;;;;;11.82;8.88;;;16.30;82.60;;;;;;2063314;28;20137;-71
2021/06/04 02:45:47;;;;;;;9.98;8.70;;;16.30;83.00;;;;;;2064117;28;20023;-71
2021/06/04 02:46:53;;;;;;;10.25;8.65;;;16.40;82.70;;;;;;2064120;28;20026;-71
2021/06/04 02:47:58;;;;;;;13.35;9.05;;;16.40;83.00;;;;;;2056872;28;20034;-71
2021/06/04 02:49:00;;;;;;;11.73;8.68;;;16.40;82.70;;;;;;2064047;28;20065;-71
2021/06/04 02:50:07;;;;;;;12.35;9.13;;;16.40;82.20;;;;;;2064440;28;20417;-71
2021/06/04 02:51:16;;;;;;;10.90;8.27;;;16.40;81.10;;;;;;2064731;28;20080;-71
2021/06/04 02:52:37;;;;;;;9.18;8.23;;;16.40;81.20;;;;;;2064972;28;20076;-70
2021/06/04 02:53:46;;;;;;;9.25;8.32;;;16.50;80.80;;;;;;2064653;28;20116;-74
2021/06/04 02:54:46;;;;;;;9.27;8.30;;;16.40;80.50;;;;;;2064017;28;20461;-70
2021/06/04 02:56:06;;;;;;;9.95;8.30;;;16.50;80.80;;;;;;2065208;28;20022;-70
2021/06/04 02:57:14;;;;;;;8.88;7.97;;;16.50;80.70;;;;;;2064564;28;20062;-71
2021/06/04 02:58:16;;;;;;;8.73;7.93;;;16.50;80.80;;;;;;2065054;28;20127;-71
2021/06/04 02:59:27;;;;;;;8.57;7.68;;;16.50;80.80;;;;;;2064417;28;20043;-71
2021/06/04 03:00:38;;;;;;;9.70;7.68;;;16.50;80.70;;;;;;2056154;28;20514;-72
2021/06/04 03:02:04;;;;;;;8.32;7.53;;;16.50;80.40;;;;;;2051453;28;20035;-73
2021/06/04 03:03:09;;;;;;;8.85;7.95;;;16.50;80.20;;;;;;2063829;28;20053;-72
2021/06/04 03:04:15;;;;;;;9.02;7.93;;;16.50;79.70;;;;;;2063272;28;20062;-72
2021/06/04 03:05:28;;;;;;;8.70;7.80;;;16.50;79.30;;;;;;2057918;28;20027;-72
2021/06/04 03:06:42;;;;;;;10.00;7.70;;;16.50;79.10;;;;;;2064733;28;20035;-72
2021/06/04 03:07:46;;;;;;;8.15;7.32;;;16.50;78.90;;;;;;2048000;29;20042;-73
2021/06/04 03:08:51;;;;;;;8.15;7.35;;;16.50;78.80;;;;;;2048017;29;20039;-72
2021/06/04 03:09:55;;;;;;;8.38;7.47;;;16.50;78.70;;;;;;2048016;29;20027;-73
2021/06/04 03:10:57;;;;;;;8.23;7.43;;;16.50;78.70;;;;;;2047814;29;20090;-72
2021/06/04 03:12:03;;;;;;;8.25;7.40;;;16.40;78.40;;;;;;2047884;29;20066;-72
2021/06/04 03:13:08;;;;;;;8.40;7.60;;;16.50;78.30;;;;;;2048877;28;20047;-72
2021/06/04 03:14:11;;;;;;;8.18;7.38;;;16.50;78.50;;;;;;2055881;28;20034;-72
2021/06/04 03:15:35;;;;;;;8.30;7.50;;;16.50;78.30;;;;;;2055886;28;20037;-72
2021/06/04 03:16:40;;;;;;;8.60;7.70;;;16.50;78.10;;;;;;2056270;28;20031;-72
2021/06/04 03:17:43;;;;;;;8.30;7.50;;;16.50;77.80;;;;;;2056483;28;20026;-72
2021/06/04 03:18:50;;;;;;;8.48;7.60;;;16.40;77.60;;;;;;2047893;29;20038;-72
2021/06/04 03:19:52;;;;;;;8.65;7.72;;;16.50;77.60;;;;;;2048718;28;20019;-72
2021/06/04 03:20:54;;;;;;;8.02;7.22;;;16.50;77.60;;;;;;2056556;28;20371;-72
2021/06/04 03:22:01;;;;;;;8.25;7.43;;;16.50;77.60;;;;;;2055861;28;20019;-72
2021/06/04 03:23:09;;;;;;;8.50;7.60;;;16.40;77.50;;;;;;2056029;28;20041;-72
2021/06/04 03:24:15;;;;;;;8.15;7.25;;;16.50;77.60;;;;;;2054998;28;20061;-72
2021/06/04 03:25:33;;;;;;;10.05;7.68;;;16.50;77.40;;;;;;2056022;28;20034;-72
2021/06/04 03:26:37;;;;;;;7.88;7.10;;;16.50;77.60;;;;;;2048235;29;20019;-72
2021/06/04 03:27:39;;;;;;;8.30;7.50;;;16.60;77.70;;;;;;2048576;28;20122;-72
2021/06/04 03:28:50;;;;;;;8.15;7.35;;;16.60;77.70;;;;;;2040121;29;20035;-72
2021/06/04 03:29:53;;;;;;;8.30;7.50;;;16.60;77.50;;;;;;2042681;28;20079;-72
2021/06/04 03:30:54;;;;;;;8.35;7.50;;;16.60;77.60;;;;;;2056365;28;20487;-72
2021/06/04 03:31:58;;;;;;;9.10;7.88;;;16.60;77.70;;;;;;2056616;28;20039;-72
2021/06/04 03:33:00;;;;;;;9.32;8.43;;;16.70;78.00;;;;;;2056491;28;20037;-72
2021/06/04 03:34:04;;;;;;;9.07;8.00;;;16.70;78.30;;;;;;2056488;28;20450;-72
2021/06/04 03:35:08;;;;;;;10.25;8.32;;;16.70;78.30;;;;;;2060417;28;20168;-72
2021/06/04 03:36:14;;;;;;;9.60;8.30;;;16.70;78.30;;;;;;2064345;28;20505;-72
2021/06/04 03:37:17;;;;;;;9.10;8.18;;;16.80;78.30;;;;;;2064404;28;20034;-72
2021/06/04 03:38:20;;;;;;;8.50;7.70;;;16.80;78.10;;;;;;2064202;28;20167;-71
2021/06/04 03:39:29;;;;;;;8.98;8.15;;;16.80;78.10;;;;;;2064527;28;20056;-71
2021/06/04 03:40:32;;;;;;;11.38;8.77;;;16.80;78.10;;;;;;2055880;28;20505;-71
2021/06/04 03:41:35;;;;;;;9.02;7.95;;;16.90;78.30;;;;;;2056044;28;20030;-71
2021/06/04 03:42:38;;;;;;;9.95;8.27;;;16.90;78.30;;;;;;2055824;28;20037;-71
2021/06/04 03:43:40;;;;;;;10.30;8.10;;;16.90;78.00;;;;;;2055736;28;20014;-71
2021/06/04 03:44:43;;;;;;;8.88;7.97;;;17.00;77.60;;;;;;2055193;28;20019;-71
2021/06/04 03:45:45;;;;;;;9.07;7.78;;;17.00;77.50;;;;;;2055575;28;20648;-73
2021/06/04 03:46:47;;;;;;;8.65;7.75;;;17.00;77.40;;;;;;2055770;28;20514;-71
2021/06/04 03:47:48;;;;;;;9.05;8.10;;;17.10;77.00;;;;;;2055787;28;20061;-71
2021/06/04 03:48:49;;;;;;;8.82;7.70;;;17.10;77.60;;;;;;2064321;28;20081;-71
2021/06/04 03:49:50;;;;;;;9.40;8.10;;;17.10;76.30;;;;;;2064219;28;20053;-71
2021/06/04 03:50:53;;;;;;;8.45;7.43;;;17.20;75.90;;;;;;2064397;28;20030;-71
2021/06/04 03:51:57;;;;;;;8.75;7.85;;;17.20;75.70;;;;;;2064354;28;20038;-72
2021/06/04 03:52:58;;;;;;;9.05;7.93;;;17.30;75.50;;;;;;2064712;28;20035;-71
2021/06/04 03:53:59;;;;;;;9.32;8.07;;;17.30;75.40;;;;;;2064990;28;20030;-72
2021/06/04 03:55:00;;;;;;;8.90;7.95;;;17.30;75.20;;;;;;2055232;28;20031;-72
2021/06/04 03:56:01;;;;;;;8.38;7.32;;;17.40;75.30;;;;;;2056210;28;20506;-72
2021/06/04 03:57:04;;;;;;;9.80;7.68;;;17.30;75.20;;;;;;2064554;28;20026;-73
2021/06/04 03:58:05;;;;;;;9.30;7.60;;;17.40;75.10;;;;;;2065038;28;20030;-71
2021/06/04 03:59:06;;;;;;;9.15;7.53;;;17.40;75.00;;;;;;2056198;28;20025;-71
2021/06/04 04:00:20;;;;;;;8.88;7.88;;;17.40;75.30;;;;;;2056296;28;20384;-70
2021/06/04 04:01:32;;;;;;;9.25;7.65;;;17.40;75.10;;;;;;2064685;28;20470;-72
2021/06/04 04:02:32;;;;;;;8.15;7.13;;;17.40;74.60;;;;;;2064570;28;20483;-72
2021/06/04 04:03:33;;;;;;;9.60;7.93;;;17.40;74.30;;;;;;2064193;28;20030;-73
2021/06/04 04:04:34;;;;;;;10.23;8.02;;;17.40;74.60;;;;;;2063232;28;20026;-71
2021/06/04 04:05:35;;;;;;;12.50;8.30;;;17.40;73.70;;;;;;2056181;28;20121;-74
2021/06/04 04:06:36;;;;;;;11.70;8.00;;;17.40;73.80;;;;;;2064238;28;20010;-72
2021/06/04 04:07:38;;;;;;;11.40;8.18;;;17.40;72.90;;;;;;2064204;28;20041;-72
2021/06/04 04:08:39;;;;;;;10.27;8.00;;;17.40;73.00;;;;;;2064208;28;20030;-72
2021/06/04 04:09:40;;;;;;;10.38;8.10;;;17.40;72.80;;;;;;2064187;28;20389;-73
2021/06/04 04:10:42;;;;;;;13.15;8.27;;;17.40;73.10;;;;;;2064276;28;20022;-72
2021/06/04 04:11:46;;;;;;;10.27;7.95;;;17.40;73.10;;;;;;2064192;28;20046;-69
2021/06/04 04:12:49;;;;;;;11.23;7.75;;;17.40;73.20;;;;;;2064187;28;20069;-70
2021/06/04 04:13:50;;;;;;;12.55;7.82;;;17.40;73.50;;;;;;2064057;28;20367;-71
2021/06/04 04:14:51;;;;;;;10.02;7.35;;;17.40;73.20;;;;;;2063458;28;20091;-72
2021/06/04 04:15:53;;;;;;;13.18;8.15;;;17.40;73.40;;;;;;2064107;28;20104;-71
2021/06/04 04:16:54;;;;;;;12.75;7.78;;;17.40;73.00;;;;;;2064203;28;20022;-72
2021/06/04 04:18:02;;;;;;;10.07;7.70;;;17.40;72.30;;;;;;2064345;28;20014;-70
2021/06/04 04:19:04;;;;;;;8.45;7.47;;;17.40;72.70;;;;;;2063569;28;20461;-71
2021/06/04 04:20:05;;;;;;;8.43;7.38;;;17.40;72.10;;;;;;2063644;28;20420;-71
2021/06/04 04:21:08;;;;;;;8.32;7.32;;;17.40;72.40;;;;;;2063740;28;20030;-70
2021/06/04 04:22:09;;;;;;;9.38;7.40;;;17.40;72.60;;;;;;2063718;28;20132;-71
2021/06/04 04:23:16;;;;;;;7.50;6.80;;;17.40;72.40;;;;;;2064285;28;20050;-72
2021/06/04 04:24:25;;;;;;;7.18;6.45;;;17.40;72.40;;;;;;2063279;28;20565;-71
2021/06/04 04:25:29;;;;;;;7.85;6.90;;;17.40;72.30;;;;;;2064371;28;20081;-71
2021/06/04 04:26:33;;;;;;;8.43;7.15;;;17.40;72.30;;;;;;2064270;28;20029;-71
2021/06/04 04:27:34;;;;;;;8.00;6.85;;;17.40;72.00;;;;;;2064123;28;20073;-72
2021/06/04 04:28:38;;;;;;;8.57;7.25;;;17.50;72.10;;;;;;2064308;28;20033;-70
2021/06/04 04:29:39;;;;;;;7.90;7.10;;;17.50;72.00;;;;;;2064119;28;20077;-70
2021/06/04 04:30:40;;;;;;;8.35;7.45;;;17.50;71.90;;;;;;2063395;28;20129;-71
2021/06/04 04:31:47;;;;;;;12.82;7.68;;;17.50;71.50;;;;;;2063560;28;20027;-72
2021/06/04 04:32:49;;;;;;;8.55;7.32;;;17.50;70.90;;;;;;2064005;28;20034;-71
2021/06/04 04:33:51;;;;;;;8.23;7.00;;;17.50;70.70;;;;;;2065126;28;20502;-72
2021/06/04 04:34:52;;;;;;;8.05;6.68;;;17.60;70.80;;;;;;2053256;28;20027;-72
2021/06/04 04:35:53;;;;;;;10.35;7.70;;;17.60;70.90;;;;;;2049158;28;20059;-72
2021/06/04 04:37:01;;;;;;;9.57;7.15;;;17.60;70.20;;;;;;2059738;28;20391;-73
2021/06/04 04:38:04;;;;;;;11.05;7.50;;;17.60;70.60;;;;;;2065305;28;20077;-73
2021/06/04 04:39:12;;;;;;;15.13;8.10;;;17.60;70.40;;;;;;2064798;28;20157;-70
2021/06/04 04:40:16;;;;;;;10.98;8.00;;;17.70;70.90;;;;;;2065340;28;20042;-73
2021/06/04 04:41:16;;;;;;;11.25;8.10;;;17.60;71.20;;;;;;2065107;28;20109;-74
2021/06/04 04:42:21;;;;;;;10.13;7.55;;;17.60;70.80;;;;;;2065781;28;20026;-72
2021/06/04 04:43:22;;;;;;;10.85;7.45;;;17.60;71.20;;;;;;2065702;28;20019;-71
2021/06/04 04:44:28;;;;;;;9.45;7.25;;;17.60;71.70;;;;;;2064851;28;20129;-71
2021/06/04 04:45:29;;;;;;;10.02;7.78;;;17.60;71.70;;;;;;2065474;28;20112;-73
2021/06/04 04:46:30;;;;;;;11.65;8.20;;;17.60;71.70;;;;;;2065577;28;20030;-72
2021/06/04 04:47:31;;;;;;;9.88;7.30;;;17.60;71.70;;;;;;2065458;28;20029;-72
2021/06/04 04:48:32;;;;;;;9.27;7.60;;;17.50;71.50;;;;;;2064910;28;20030;-72
2021/06/04 04:49:33;;;;;;;14.18;8.15;;;17.50;71.50;;;;;;2064873;28;20034;-72
2021/06/04 04:50:36;;;;;;;11.02;7.40;;;17.50;71.60;;;;;;2065726;28;20466;-72
2021/06/04 04:51:39;;;;;;;11.73;7.53;;;17.50;71.70;;;;;;2065618;28;20699;-73
2021/06/04 04:52:39;;;;;;;8.98;7.45;;;17.60;71.60;;;;;;2065572;28;20023;-71
2021/06/04 04:53:41;;;;;;;10.77;7.30;;;17.60;71.10;;;;;;2065603;28;20428;-72
2021/06/04 04:54:49;;;;;;;9.52;7.50;;;17.60;71.80;;;;;;2064956;28;20048;-72
2021/06/04 04:55:50;;;;;;;8.38;7.35;;;17.60;71.70;;;;;;2065691;28;20381;-72
2021/06/04 04:56:51;;;;;;;10.57;7.45;;;17.60;71.70;;;;;;2065445;28;20026;-72
2021/06/04 04:57:52;;;;;;;13.38;8.18;;;17.60;71.60;;;;;;2065595;28;20474;-72
2021/06/04 04:58:53;;;;;;;9.40;7.45;;;17.60;71.00;;;;;;2065553;28;20061;-72
2021/06/04 04:59:55;;;;;;;11.60;7.63;;;17.60;70.60;;;;;;2065515;28;20029;-72
2021/06/04 05:00:56;;;;;;;15.98;8.40;;;17.60;70.60;;;;;;2065732;28;20033;-73
2021/06/04 05:01:57;;;;;;;10.63;7.50;;;17.70;70.40;;;;;;2065441;28;20034;-72
2021/06/04 05:02:58;;;;;;;9.65;7.30;;;17.60;70.30;;;;;;2065418;28;20053;-72
2021/06/04 05:03:59;;;;;;;10.45;7.60;;;17.70;70.30;;;;;;2065647;28;20026;-73
2021/06/04 05:05:00;;;;;;;12.75;7.82;;;17.70;70.50;;;;;;2060023;28;20030;-72
2021/06/04 05:06:00;;;;;;;10.48;7.60;;;17.70;70.80;;;;;;2060013;28;20466;-73
2021/06/04 05:07:02;;;;;;;12.65;7.72;;;17.70;70.70;;;;;;2065052;28;20025;-73
2021/06/04 05:08:04;;;;;;;14.00;7.80;;;17.70;70.40;;;;;;2065527;28;20533;-73
2021/06/04 05:09:06;;;;;;;8.98;6.93;;;17.80;70.60;;;;;;2065414;28;20066;-73
2021/06/04 05:10:08;;;;;;;9.82;7.13;;;17.80;70.80;;;;;;2065562;28;20026;-73
2021/06/04 05:11:09;;;;;;;9.38;6.97;;;17.90;70.90;;;;;;2065475;28;20099;-73
2021/06/04 05:12:11;;;;;;;7.70;6.88;;;17.90;70.90;;;;;;2056761;28;20034;-73
2021/06/04 05:13:13;;;;;;;9.32;6.70;;;18.00;70.80;;;;;;2056902;28;20031;-73
2021/06/04 05:14:14;;;;;;;9.77;7.07;;;18.00;70.60;;;;;;2064519;28;20058;-73
2021/06/04 05:15:22;;;;;;;10.40;7.15;;;18.00;70.40;;;;;;2056555;28;20034;-73
2021/06/04 05:16:22;;;;;;;8.30;7.40;;;18.10;70.30;;;;;;2057600;28;20030;-73
2021/06/04 05:17:23;;;;;;;7.60;6.80;;;18.10;69.80;;;;;;2056609;28;20039;-73
2021/06/04 05:18:23;;;;;;;14.88;10.02;;;18.10;69.70;;;;;;2056757;28;20041;-73
2021/06/04 05:19:24;;;;;;;11.68;7.43;;;18.20;68.80;;;;;;2065303;28;20041;-73
2021/06/04 05:20:26;;;;;;;8.27;7.25;;;18.20;68.60;;;;;;2065824;28;20089;-73
2021/06/04 05:21:26;;;;;;;9.32;7.30;;;18.20;68.40;;;;;;2066444;28;20036;-73
2021/06/04 05:22:27;;;;;;;10.05;7.50;;;18.20;68.60;;;;;;2066197;28;20033;-73
2021/06/04 05:23:28;;;;;;;11.65;7.20;;;18.20;68.30;;;;;;2067597;28;20054;-73
2021/06/04 05:24:28;;;;;;;12.13;7.72;;;18.20;68.50;;;;;;2066865;28;20117;-73
2021/06/04 05:25:33;;;;;;;9.68;6.68;;;18.30;68.60;;;;;;2066609;28;20149;-72
2021/06/04 05:26:34;;;;;;;7.95;6.78;;;18.30;68.70;;;;;;2066695;28;20029;-72
2021/06/04 05:27:34;;;;;;;11.07;7.07;;;18.30;68.50;;;;;;2066260;28;20120;-72
2021/06/04 05:28:38;;;;;;;12.82;7.18;;;18.30;68.00;;;;;;2057281;28;20737;-73
2021/06/04 05:29:39;;;;;;;11.50;6.82;;;18.30;67.20;;;;;;2057166;28;20034;-72
2021/06/04 05:30:43;;;;;;;10.52;6.90;;;18.30;66.90;;;;;;2065265;28;20473;-72
2021/06/04 05:31:44;;;;;;;12.25;7.18;;;18.40;66.80;;;;;;2065017;28;20371;-73
2021/06/04 05:32:44;;;;;;;11.50;7.22;;;18.40;66.80;;;;;;2065191;28;20058;-72
2021/06/04 05:33:47;;;;;;;11.10;7.43;;;18.40;66.90;;;;;;2056471;28;20035;-73
2021/06/04 05:34:49;;;;;;;10.23;7.28;;;18.40;67.00;;;;;;2055685;28;20039;-74
2021/06/04 05:35:51;;;;;;;9.15;7.20;;;18.50;67.60;;;;;;2065037;28;20030;-73
2021/06/04 05:36:52;;;;;;;13.02;7.72;;;18.50;66.50;;;;;;2065172;28;20536;-74
2021/06/04 05:37:52;;;;;;;10.98;7.38;;;18.50;65.80;;;;;;2064906;28;20103;-74
2021/06/04 05:38:53;;;;;;;14.35;7.32;;;18.50;66.60;;;;;;2065151;28;20121;-73
2021/06/04 05:39:54;;;;;;;8.98;7.00;;;18.50;67.00;;;;;;2065235;28;20026;-73
2021/06/04 05:40:55;;;;;;;9.13;6.72;;;18.50;67.00;;;;;;2065106;28;20034;-72
2021/06/04 05:42:01;;;;;;;10.88;7.15;;;18.60;67.30;;;;;;2065048;28;20053;-72
2021/06/04 05:43:04;;;;;;;8.73;7.10;;;18.60;67.70;;;;;;2065379;28;20030;-72
2021/06/04 05:44:05;;;;;;;12.07;6.90;;;18.60;66.70;;;;;;2064272;28;20037;-72